Ashland, Kansas
Current Conditions -  °F | °C
As of 7:52 AM on Friday 24 Oct 2014 (Local Time) from KDDC Reporting Station
Haze Haze  
Wind Chill: 53°   Ceiling: Unl
Heat Index: 53°   Visibility: 3mi
Dew Point: 51°   Wind: 9mph
Humidity: 93%   Direction: 200°SSW
Pressure: 30.06"   Gusts: NA
Location:  37.19°N, 99.77°W
Report Text: KDDC 241252Z AUTO 20008KT 3SM BR CLR 12/11 A3006 RMK AO2 SLP168 T01170106
Loading
Personal Weather Stations






























Interactive Weather Map New forecast layout! Learn more

10-Day Weather Forecast

Advertisements
Track Severe Weather on mobile